sensor_id;sensor_type;location;lat;lon;timestamp;temperature;humidity
64705;DHT22;51131;52.298;13.686;2023-01-08T00:01:03;17.80;60.20
64705;DHT22;51131;52.298;13.686;2023-01-08T00:03:29;17.70;59.70
64705;DHT22;51131;52.298;13.686;2023-01-08T00:05:58;17.70;59.80
64705;DHT22;51131;52.298;13.686;2023-01-08T00:08:25;17.70;59.80
64705;DHT22;51131;52.298;13.686;2023-01-08T00:10:53;17.80;59.70
64705;DHT22;51131;52.298;13.686;2023-01-08T00:13:19;17.70;59.70
64705;DHT22;51131;52.298;13.686;2023-01-08T00:15:46;17.70;59.50
64705;DHT22;51131;52.298;13.686;2023-01-08T00:18:14;17.70;59.60
64705;DHT22;51131;52.298;13.686;2023-01-08T00:20:42;17.70;59.40
64705;DHT22;51131;52.298;13.686;2023-01-08T00:23:16;17.60;59.50
64705;DHT22;51131;52.298;13.686;2023-01-08T00:25:43;17.60;59.40
64705;DHT22;51131;52.298;13.686;2023-01-08T00:28:10;17.80;59.50
64705;DHT22;51131;52.298;13.686;2023-01-08T00:30:37;17.70;59.40
64705;DHT22;51131;52.298;13.686;2023-01-08T00:33:03;17.70;59.40
64705;DHT22;51131;52.298;13.686;2023-01-08T00:35:30;17.70;59.50
64705;DHT22;51131;52.298;13.686;2023-01-08T00:37:57;17.70;59.50
64705;DHT22;51131;52.298;13.686;2023-01-08T00:40:24;17.70;59.50
64705;DHT22;51131;52.298;13.686;2023-01-08T00:42:50;17.70;59.50
64705;DHT22;51131;52.298;13.686;2023-01-08T00:45:17;17.60;59.40
64705;DHT22;51131;52.298;13.686;2023-01-08T00:47:43;17.70;59.40
64705;DHT22;51131;52.298;13.686;2023-01-08T00:50:10;17.60;59.30
64705;DHT22;51131;52.298;13.686;2023-01-08T00:52:37;18.00;59.70
64705;DHT22;51131;52.298;13.686;2023-01-08T00:55:04;17.70;59.40
64705;DHT22;51131;52.298;13.686;2023-01-08T00:57:32;17.60;59.30
64705;DHT22;51131;52.298;13.686;2023-01-08T00:59:58;17.70;59.30
64705;DHT22;51131;52.298;13.686;2023-01-08T01:02:25;17.70;59.20
64705;DHT22;51131;52.298;13.686;2023-01-08T01:04:53;17.60;59.10
64705;DHT22;51131;52.298;13.686;2023-01-08T01:07:19;17.60;59.10
64705;DHT22;51131;52.298;13.686;2023-01-08T01:09:46;17.60;59.00
64705;DHT22;51131;52.298;13.686;2023-01-08T01:12:13;17.60;58.90
64705;DHT22;51131;52.298;13.686;2023-01-08T01:14:40;17.60;59.10
64705;DHT22;51131;52.298;13.686;2023-01-08T01:17:06;17.70;59.30
64705;DHT22;51131;52.298;13.686;2023-01-08T01:19:33;17.60;59.10
64705;DHT22;51131;52.298;13.686;2023-01-08T01:21:59;17.60;59.00
64705;DHT22;51131;52.298;13.686;2023-01-08T01:24:26;17.60;59.00
64705;DHT22;51131;52.298;13.686;2023-01-08T01:26:53;17.60;58.90
64705;DHT22;51131;52.298;13.686;2023-01-08T01:29:22;17.60;58.90
64705;DHT22;51131;52.298;13.686;2023-01-08T01:31:49;17.60;58.90
64705;DHT22;51131;52.298;13.686;2023-01-08T01:34:15;17.70;59.10
64705;DHT22;51131;52.298;13.686;2023-01-08T01:36:42;17.60;59.00
64705;DHT22;51131;52.298;13.686;2023-01-08T01:39:09;17.70;59.00
64705;DHT22;51131;52.298;13.686;2023-01-08T01:41:36;17.60;59.00
64705;DHT22;51131;52.298;13.686;2023-01-08T01:46:49;17.60;59.00
64705;DHT22;51131;52.298;13.686;2023-01-08T01:49:19;17.70;59.10
64705;DHT22;51131;52.298;13.686;2023-01-08T01:51:48;17.70;59.00
64705;DHT22;51131;52.298;13.686;2023-01-08T01:54:16;17.60;59.00
64705;DHT22;51131;52.298;13.686;2023-01-08T01:56:43;17.60;59.00
64705;DHT22;51131;52.298;13.686;2023-01-08T01:59:11;17.60;58.90
64705;DHT22;51131;52.298;13.686;2023-01-08T02:01:37;17.60;59.00
64705;DHT22;51131;52.298;13.686;2023-01-08T02:04:07;17.60;58.80
64705;DHT22;51131;52.298;13.686;2023-01-08T02:09:08;17.60;59.10
64705;DHT22;51131;52.298;13.686;2023-01-08T02:14:39;17.70;59.20
64705;DHT22;51131;52.298;13.686;2023-01-08T02:17:09;17.60;58.90
64705;DHT22;51131;52.298;13.686;2023-01-08T02:19:40;18.50;59.70
64705;DHT22;51131;52.298;13.686;2023-01-08T02:22:13;17.80;59.10
64705;DHT22;51131;52.298;13.686;2023-01-08T02:27:29;17.60;58.90
64705;DHT22;51131;52.298;13.686;2023-01-08T02:29:57;17.60;59.00
64705;DHT22;51131;52.298;13.686;2023-01-08T02:32:27;17.60;59.00
64705;DHT22;51131;52.298;13.686;2023-01-08T02:34:58;17.60;59.10
64705;DHT22;51131;52.298;13.686;2023-01-08T02:37:24;18.60;59.80
64705;DHT22;51131;52.298;13.686;2023-01-08T02:47:48;17.60;59.20
64705;DHT22;51131;52.298;13.686;2023-01-08T02:50:35;17.60;59.20
64705;DHT22;51131;52.298;13.686;2023-01-08T02:53:05;17.60;59.20
64705;DHT22;51131;52.298;13.686;2023-01-08T02:55:34;17.60;59.20
64705;DHT22;51131;52.298;13.686;2023-01-08T02:58:03;17.60;59.00
64705;DHT22;51131;52.298;13.686;2023-01-08T03:00:30;17.60;59.00
64705;DHT22;51131;52.298;13.686;2023-01-08T03:03:00;17.60;59.10
64705;DHT22;51131;52.298;13.686;2023-01-08T03:05:29;17.60;59.00
64705;DHT22;51131;52.298;13.686;2023-01-08T03:07:55;17.60;59.00
64705;DHT22;51131;52.298;13.686;2023-01-08T03:10:23;17.60;58.80
64705;DHT22;51131;52.298;13.686;2023-01-08T03:12:58;17.60;59.30
64705;DHT22;51131;52.298;13.686;2023-01-08T03:15:36;17.60;58.70
64705;DHT22;51131;52.298;13.686;2023-01-08T03:18:08;17.60;58.70
64705;DHT22;51131;52.298;13.686;2023-01-08T03:20:36;17.60;58.70
64705;DHT22;51131;52.298;13.686;2023-01-08T03:23:08;17.60;58.80
64705;DHT22;51131;52.298;13.686;2023-01-08T03:25:39;17.70;58.80
64705;DHT22;51131;52.298;13.686;2023-01-08T03:28:09;17.60;59.30
64705;DHT22;51131;52.298;13.686;2023-01-08T03:30:37;18.60;59.40
64705;DHT22;51131;52.298;13.686;2023-01-08T03:33:05;17.60;58.80
64705;DHT22;51131;52.298;13.686;2023-01-08T03:35:32;17.70;58.80
64705;DHT22;51131;52.298;13.686;2023-01-08T03:38:02;17.70;58.90
64705;DHT22;51131;52.298;13.686;2023-01-08T03:40:30;17.60;58.60
64705;DHT22;51131;52.298;13.686;2023-01-08T03:43:00;17.60;58.60
64705;DHT22;51131;52.298;13.686;2023-01-08T03:45:27;17.60;58.60
64705;DHT22;51131;52.298;13.686;2023-01-08T03:47:55;17.60;58.70
64705;DHT22;51131;52.298;13.686;2023-01-08T03:50:24;17.60;58.50
64705;DHT22;51131;52.298;13.686;2023-01-08T03:52:52;17.60;58.70
64705;DHT22;51131;52.298;13.686;2023-01-08T03:55:19;17.60;58.50
64705;DHT22;51131;52.298;13.686;2023-01-08T03:57:45;17.70;58.60
64705;DHT22;51131;52.298;13.686;2023-01-08T04:00:12;17.60;58.40
64705;DHT22;51131;52.298;13.686;2023-01-08T04:02:39;17.60;58.40
64705;DHT22;51131;52.298;13.686;2023-01-08T04:05:08;17.70;58.50
64705;DHT22;51131;52.298;13.686;2023-01-08T04:07:34;17.60;58.40
64705;DHT22;51131;52.298;13.686;2023-01-08T04:10:01;17.70;58.40
64705;DHT22;51131;52.298;13.686;2023-01-08T04:12:28;17.60;58.50
64705;DHT22;51131;52.298;13.686;2023-01-08T04:14:54;17.60;58.50
64705;DHT22;51131;52.298;13.686;2023-01-08T04:17:21;18.50;59.20
64705;DHT22;51131;52.298;13.686;2023-01-08T04:19:48;17.60;58.50
64705;DHT22;51131;52.298;13.686;2023-01-08T04:22:14;17.60;59.00
64705;DHT22;51131;52.298;13.686;2023-01-08T04:24:41;17.60;58.40
64705;DHT22;51131;52.298;13.686;2023-01-08T04:27:08;17.60;58.30
64705;DHT22;51131;52.298;13.686;2023-01-08T04:29:34;17.60;58.40
64705;DHT22;51131;52.298;13.686;2023-01-08T04:32:01;17.60;58.30
64705;DHT22;51131;52.298;13.686;2023-01-08T04:34:28;17.60;58.30
64705;DHT22;51131;52.298;13.686;2023-01-08T04:36:54;17.60;58.60
64705;DHT22;51131;52.298;13.686;2023-01-08T04:39:21;17.60;58.50
64705;DHT22;51131;52.298;13.686;2023-01-08T04:41:48;17.60;58.40
64705;DHT22;51131;52.298;13.686;2023-01-08T04:44:14;17.60;58.40
64705;DHT22;51131;52.298;13.686;2023-01-08T04:46:41;17.60;58.40
64705;DHT22;51131;52.298;13.686;2023-01-08T04:49:08;17.60;58.50
64705;DHT22;51131;52.298;13.686;2023-01-08T04:51:35;17.60;58.60
64705;DHT22;51131;52.298;13.686;2023-01-08T04:54:02;17.60;58.60
64705;DHT22;51131;52.298;13.686;2023-01-08T04:56:29;17.60;58.60
64705;DHT22;51131;52.298;13.686;2023-01-08T04:58:57;17.70;58.50
64705;DHT22;51131;52.298;13.686;2023-01-08T05:01:24;17.80;58.80
64705;DHT22;51131;52.298;13.686;2023-01-08T05:03:58;17.60;58.60
64705;DHT22;51131;52.298;13.686;2023-01-08T05:06:25;17.60;58.60
64705;DHT22;51131;52.298;13.686;2023-01-08T05:08:52;17.80;58.60
64705;DHT22;51131;52.298;13.686;2023-01-08T05:11:18;17.80;58.70
64705;DHT22;51131;52.298;13.686;2023-01-08T05:13:49;17.80;58.40
64705;DHT22;51131;52.298;13.686;2023-01-08T05:16:16;17.60;58.60
64705;DHT22;51131;52.298;13.686;2023-01-08T05:18:43;17.60;58.50
64705;DHT22;51131;52.298;13.686;2023-01-08T05:21:10;17.60;58.40
64705;DHT22;51131;52.298;13.686;2023-01-08T05:23:37;17.60;58.50
64705;DHT22;51131;52.298;13.686;2023-01-08T05:26:04;17.60;58.40
64705;DHT22;51131;52.298;13.686;2023-01-08T05:28:31;17.60;58.60
64705;DHT22;51131;52.298;13.686;2023-01-08T05:30:57;18.40;58.90
64705;DHT22;51131;52.298;13.686;2023-01-08T05:33:24;17.60;58.50
64705;DHT22;51131;52.298;13.686;2023-01-08T05:35:51;17.60;58.30
64705;DHT22;51131;52.298;13.686;2023-01-08T05:38:18;17.60;58.40
64705;DHT22;51131;52.298;13.686;2023-01-08T05:40:44;17.60;58.40
64705;DHT22;51131;52.298;13.686;2023-01-08T05:43:11;17.60;58.50
64705;DHT22;51131;52.298;13.686;2023-01-08T05:45:37;17.60;58.40
64705;DHT22;51131;52.298;13.686;2023-01-08T05:48:04;17.60;58.70
64705;DHT22;51131;52.298;13.686;2023-01-08T05:50:32;17.60;58.20
64705;DHT22;51131;52.298;13.686;2023-01-08T05:52:59;17.80;58.40
64705;DHT22;51131;52.298;13.686;2023-01-08T05:55:26;17.60;58.30
64705;DHT22;51131;52.298;13.686;2023-01-08T05:57:53;17.60;58.40
64705;DHT22;51131;52.298;13.686;2023-01-08T06:00:19;17.60;58.60
64705;DHT22;51131;52.298;13.686;2023-01-08T06:02:46;17.90;58.90
64705;DHT22;51131;52.298;13.686;2023-01-08T06:05:13;18.20;59.00
64705;DHT22;51131;52.298;13.686;2023-01-08T06:07:40;17.60;58.30
64705;DHT22;51131;52.298;13.686;2023-01-08T06:10:06;17.60;58.40
64705;DHT22;51131;52.298;13.686;2023-01-08T06:12:33;17.60;58.40
64705;DHT22;51131;52.298;13.686;2023-01-08T06:15:00;17.60;58.30
64705;DHT22;51131;52.298;13.686;2023-01-08T06:17:27;17.60;58.30
64705;DHT22;51131;52.298;13.686;2023-01-08T06:19:53;17.60;58.40
64705;DHT22;51131;52.298;13.686;2023-01-08T06:22:20;17.60;58.20
64705;DHT22;51131;52.298;13.686;2023-01-08T06:24:46;17.60;58.20
64705;DHT22;51131;52.298;13.686;2023-01-08T06:27:13;17.60;58.20
64705;DHT22;51131;52.298;13.686;2023-01-08T06:29:39;17.60;58.00
64705;DHT22;51131;52.298;13.686;2023-01-08T06:32:06;17.60;58.20
64705;DHT22;51131;52.298;13.686;2023-01-08T06:34:33;17.60;58.00
64705;DHT22;51131;52.298;13.686;2023-01-08T06:36:59;17.60;58.00
64705;DHT22;51131;52.298;13.686;2023-01-08T06:39:26;17.60;57.90
64705;DHT22;51131;52.298;13.686;2023-01-08T06:41:52;17.60;57.90
64705;DHT22;51131;52.298;13.686;2023-01-08T06:44:19;17.60;58.00
64705;DHT22;51131;52.298;13.686;2023-01-08T06:46:46;18.40;58.70
64705;DHT22;51131;52.298;13.686;2023-01-08T06:49:13;17.70;58.00
64705;DHT22;51131;52.298;13.686;2023-01-08T06:51:40;17.60;57.90
64705;DHT22;51131;52.298;13.686;2023-01-08T06:54:06;17.60;57.90
64705;DHT22;51131;52.298;13.686;2023-01-08T06:56:33;17.60;57.60
64705;DHT22;51131;52.298;13.686;2023-01-08T06:59:18;17.60;57.40
64705;DHT22;51131;52.298;13.686;2023-01-08T07:01:44;17.60;57.80
64705;DHT22;51131;52.298;13.686;2023-01-08T07:04:11;17.60;58.20
64705;DHT22;51131;52.298;13.686;2023-01-08T07:06:38;17.60;57.80
64705;DHT22;51131;52.298;13.686;2023-01-08T07:09:04;17.60;57.50
64705;DHT22;51131;52.298;13.686;2023-01-08T07:11:31;17.60;57.60
64705;DHT22;51131;52.298;13.686;2023-01-08T07:13:58;17.60;57.40
64705;DHT22;51131;52.298;13.686;2023-01-08T07:16:25;17.60;57.60
64705;DHT22;51131;52.298;13.686;2023-01-08T07:18:51;17.60;57.70
64705;DHT22;51131;52.298;13.686;2023-01-08T07:21:18;17.60;57.70
64705;DHT22;51131;52.298;13.686;2023-01-08T07:23:47;17.60;57.60
64705;DHT22;51131;52.298;13.686;2023-01-08T07:26:14;17.60;57.50
64705;DHT22;51131;52.298;13.686;2023-01-08T07:28:40;17.60;57.50
64705;DHT22;51131;52.298;13.686;2023-01-08T07:31:07;18.50;57.90
64705;DHT22;51131;52.298;13.686;2023-01-08T07:33:34;17.60;57.50
64705;DHT22;51131;52.298;13.686;2023-01-08T07:36:01;17.60;57.40
64705;DHT22;51131;52.298;13.686;2023-01-08T07:38:27;18.60;58.10
64705;DHT22;51131;52.298;13.686;2023-01-08T07:40:55;17.60;57.10
64705;DHT22;51131;52.298;13.686;2023-01-08T07:43:22;17.60;57.20
64705;DHT22;51131;52.298;13.686;2023-01-08T07:45:49;17.60;57.20
64705;DHT22;51131;52.298;13.686;2023-01-08T07:48:15;17.70;57.40
64705;DHT22;51131;52.298;13.686;2023-01-08T07:50:42;17.80;57.30
64705;DHT22;51131;52.298;13.686;2023-01-08T07:53:10;17.80;57.20
64705;DHT22;51131;52.298;13.686;2023-01-08T07:55:37;17.50;57.70
64705;DHT22;51131;52.298;13.686;2023-01-08T07:58:07;18.70;57.90
64705;DHT22;51131;52.298;13.686;2023-01-08T08:00:34;17.60;57.10
64705;DHT22;51131;52.298;13.686;2023-01-08T08:03:01;17.60;57.20
64705;DHT22;51131;52.298;13.686;2023-01-08T08:05:29;17.60;57.20
64705;DHT22;51131;52.298;13.686;2023-01-08T08:07:55;17.60;57.00
64705;DHT22;51131;52.298;13.686;2023-01-08T08:10:22;18.70;58.00
64705;DHT22;51131;52.298;13.686;2023-01-08T08:12:49;17.60;57.00
64705;DHT22;51131;52.298;13.686;2023-01-08T08:15:15;17.60;57.00
64705;DHT22;51131;52.298;13.686;2023-01-08T08:17:45;17.50;56.90
64705;DHT22;51131;52.298;13.686;2023-01-08T08:20:12;17.60;57.00
64705;DHT22;51131;52.298;13.686;2023-01-08T08:22:39;17.60;57.00
64705;DHT22;51131;52.298;13.686;2023-01-08T08:25:06;17.60;57.20
64705;DHT22;51131;52.298;13.686;2023-01-08T08:27:33;17.60;57.00
64705;DHT22;51131;52.298;13.686;2023-01-08T08:29:59;17.60;57.20
64705;DHT22;51131;52.298;13.686;2023-01-08T08:32:26;17.50;57.10
64705;DHT22;51131;52.298;13.686;2023-01-08T08:34:52;17.60;57.20
64705;DHT22;51131;52.298;13.686;2023-01-08T08:37:19;17.60;57.60
64705;DHT22;51131;52.298;13.686;2023-01-08T08:39:46;17.60;58.10
64705;DHT22;51131;52.298;13.686;2023-01-08T08:42:12;18.20;57.90
64705;DHT22;51131;52.298;13.686;2023-01-08T08:44:39;17.60;57.40
64705;DHT22;51131;52.298;13.686;2023-01-08T08:47:08;17.60;57.50
64705;DHT22;51131;52.298;13.686;2023-01-08T08:49:35;18.30;58.30
64705;DHT22;51131;52.298;13.686;2023-01-08T08:52:02;17.60;57.70
64705;DHT22;51131;52.298;13.686;2023-01-08T08:54:29;17.80;57.90
64705;DHT22;51131;52.298;13.686;2023-01-08T08:56:56;17.60;57.70
64705;DHT22;51131;52.298;13.686;2023-01-08T08:59:22;17.60;57.60
64705;DHT22;51131;52.298;13.686;2023-01-08T09:01:49;17.60;57.70
64705;DHT22;51131;52.298;13.686;2023-01-08T09:04:15;17.60;57.80
64705;DHT22;51131;52.298;13.686;2023-01-08T09:06:42;18.20;58.40
64705;DHT22;51131;52.298;13.686;2023-01-08T09:09:09;17.60;57.80
64705;DHT22;51131;52.298;13.686;2023-01-08T09:11:35;17.90;58.00
64705;DHT22;51131;52.298;13.686;2023-01-08T09:14:02;17.60;57.80
64705;DHT22;51131;52.298;13.686;2023-01-08T09:16:28;17.60;57.80
64705;DHT22;51131;52.298;13.686;2023-01-08T09:18:55;17.60;57.70
64705;DHT22;51131;52.298;13.686;2023-01-08T09:21:22;17.60;57.80
64705;DHT22;51131;52.298;13.686;2023-01-08T09:23:48;17.60;57.70
64705;DHT22;51131;52.298;13.686;2023-01-08T09:26:15;17.60;57.60
64705;DHT22;51131;52.298;13.686;2023-01-08T09:28:42;17.60;57.60
64705;DHT22;51131;52.298;13.686;2023-01-08T09:31:08;17.60;57.60
64705;DHT22;51131;52.298;13.686;2023-01-08T09:33:35;17.60;57.70
64705;DHT22;51131;52.298;13.686;2023-01-08T09:36:02;17.60;57.60
64705;DHT22;51131;52.298;13.686;2023-01-08T09:38:29;17.60;57.40
64705;DHT22;51131;52.298;13.686;2023-01-08T09:40:56;18.50;58.30
64705;DHT22;51131;52.298;13.686;2023-01-08T09:43:23;17.60;57.70
64705;DHT22;51131;52.298;13.686;2023-01-08T09:45:52;18.80;58.60
64705;DHT22;51131;52.298;13.686;2023-01-08T09:48:22;17.60;57.50
64705;DHT22;51131;52.298;13.686;2023-01-08T09:50:50;18.50;58.30
64705;DHT22;51131;52.298;13.686;2023-01-08T09:53:17;18.50;58.50
64705;DHT22;51131;52.298;13.686;2023-01-08T09:55:45;18.00;57.90
64705;DHT22;51131;52.298;13.686;2023-01-08T10:01:06;17.60;57.70
64705;DHT22;51131;52.298;13.686;2023-01-08T10:03:38;17.60;57.70
64705;DHT22;51131;52.298;13.686;2023-01-08T10:06:07;17.60;57.80
64705;DHT22;51131;52.298;13.686;2023-01-08T10:08:34;17.90;58.10
64705;DHT22;51131;52.298;13.686;2023-01-08T10:11:01;17.60;57.80
64705;DHT22;51131;52.298;13.686;2023-01-08T10:13:28;17.80;58.10
64705;DHT22;51131;52.298;13.686;2023-01-08T10:15:54;17.60;57.70
64705;DHT22;51131;52.298;13.686;2023-01-08T10:18:22;17.60;57.70
64705;DHT22;51131;52.298;13.686;2023-01-08T10:20:50;17.60;58.20
64705;DHT22;51131;52.298;13.686;2023-01-08T10:23:20;17.60;57.80
64705;DHT22;51131;52.298;13.686;2023-01-08T10:25:50;17.50;57.80
64705;DHT22;51131;52.298;13.686;2023-01-08T10:28:18;17.60;57.80
64705;DHT22;51131;52.298;13.686;2023-01-08T10:30:45;17.60;57.70
64705;DHT22;51131;52.298;13.686;2023-01-08T10:33:14;17.60;57.80
64705;DHT22;51131;52.298;13.686;2023-01-08T10:35:49;17.60;57.90
64705;DHT22;51131;52.298;13.686;2023-01-08T10:38:23;17.60;58.00
64705;DHT22;51131;52.298;13.686;2023-01-08T10:40:51;17.60;58.20
64705;DHT22;51131;52.298;13.686;2023-01-08T10:43:22;17.90;58.30
64705;DHT22;51131;52.298;13.686;2023-01-08T10:46:03;17.60;58.00
64705;DHT22;51131;52.298;13.686;2023-01-08T10:48:32;17.50;58.00
64705;DHT22;51131;52.298;13.686;2023-01-08T10:51:10;17.60;58.20
64705;DHT22;51131;52.298;13.686;2023-01-08T10:53:38;17.60;58.30
64705;DHT22;51131;52.298;13.686;2023-01-08T10:56:14;17.60;58.50
64705;DHT22;51131;52.298;13.686;2023-01-08T10:58:42;17.60;58.20
64705;DHT22;51131;52.298;13.686;2023-01-08T11:01:10;17.60;58.30
64705;DHT22;51131;52.298;13.686;2023-01-08T11:03:37;17.60;58.50
64705;DHT22;51131;52.298;13.686;2023-01-08T11:06:16;17.60;58.40
64705;DHT22;51131;52.298;13.686;2023-01-08T11:08:54;17.60;58.60
64705;DHT22;51131;52.298;13.686;2023-01-08T11:11:22;17.60;58.60
64705;DHT22;51131;52.298;13.686;2023-01-08T11:13:59;17.70;58.70
64705;DHT22;51131;52.298;13.686;2023-01-08T11:16:29;17.70;58.80
64705;DHT22;51131;52.298;13.686;2023-01-08T11:18:56;17.70;58.80
64705;DHT22;51131;52.298;13.686;2023-01-08T11:21:24;17.80;58.50
64705;DHT22;51131;52.298;13.686;2023-01-08T11:24:09;17.80;58.30
64705;DHT22;51131;52.298;13.686;2023-01-08T11:26:38;17.90;58.50
64705;DHT22;51131;52.298;13.686;2023-01-08T11:29:16;18.00;58.50
64705;DHT22;51131;52.298;13.686;2023-01-08T11:34:41;18.10;58.30
64705;DHT22;51131;52.298;13.686;2023-01-08T11:37:13;18.10;58.40
64705;DHT22;51131;52.298;13.686;2023-01-08T11:39:40;18.10;58.40
64705;DHT22;51131;52.298;13.686;2023-01-08T11:44:46;18.20;58.20
64705;DHT22;51131;52.298;13.686;2023-01-08T11:47:23;18.20;58.20
64705;DHT22;51131;52.298;13.686;2023-01-08T11:50:04;18.20;58.30
64705;DHT22;51131;52.298;13.686;2023-01-08T11:57:52;18.00;58.50
64705;DHT22;51131;52.298;13.686;2023-01-08T12:06:01;17.90;59.00
64705;DHT22;51131;52.298;13.686;2023-01-08T12:08:45;17.90;58.90
64705;DHT22;51131;52.298;13.686;2023-01-08T12:11:26;17.90;58.50
64705;DHT22;51131;52.298;13.686;2023-01-08T12:26:41;17.80;59.00
64705;DHT22;51131;52.298;13.686;2023-01-08T12:34:35;17.80;58.90
64705;DHT22;51131;52.298;13.686;2023-01-08T12:37:47;17.80;60.00
64705;DHT22;51131;52.298;13.686;2023-01-08T12:39:57;17.80;60.10
64705;DHT22;51131;52.298;13.686;2023-01-08T12:42:29;17.80;60.00
64705;DHT22;51131;52.298;13.686;2023-01-08T12:44:57;17.80;60.30
64705;DHT22;51131;52.298;13.686;2023-01-08T12:47:26;17.80;60.20
64705;DHT22;51131;52.298;13.686;2023-01-08T12:50:09;17.80;60.20
64705;DHT22;51131;52.298;13.686;2023-01-08T12:52:47;17.70;61.10
64705;DHT22;51131;52.298;13.686;2023-01-08T12:55:20;17.70;60.60
64705;DHT22;51131;52.298;13.686;2023-01-08T12:57:55;17.70;60.20
64705;DHT22;51131;52.298;13.686;2023-01-08T13:02:50;17.70;60.70
64705;DHT22;51131;52.298;13.686;2023-01-08T13:07:53;18.10;60.70
64705;DHT22;51131;52.298;13.686;2023-01-08T13:13:03;17.70;60.40
64705;DHT22;51131;52.298;13.686;2023-01-08T13:15:31;17.80;60.40
64705;DHT22;51131;52.298;13.686;2023-01-08T13:18:32;17.80;60.30
64705;DHT22;51131;52.298;13.686;2023-01-08T13:20:55;17.70;60.10
64705;DHT22;51131;52.298;13.686;2023-01-08T13:23:23;17.80;60.40
64705;DHT22;51131;52.298;13.686;2023-01-08T13:25:51;17.80;60.70
64705;DHT22;51131;52.298;13.686;2023-01-08T13:31:37;17.80;60.60
64705;DHT22;51131;52.298;13.686;2023-01-08T13:33:54;17.80;60.70
64705;DHT22;51131;52.298;13.686;2023-01-08T13:39:20;17.80;60.70
64705;DHT22;51131;52.298;13.686;2023-01-08T13:42:03;17.80;60.70
64705;DHT22;51131;52.298;13.686;2023-01-08T13:44:41;17.70;60.60
64705;DHT22;51131;52.298;13.686;2023-01-08T13:47:20;17.70;60.40
64705;DHT22;51131;52.298;13.686;2023-01-08T13:49:49;17.70;60.50
64705;DHT22;51131;52.298;13.686;2023-01-08T13:52:31;17.70;60.50
64705;DHT22;51131;52.298;13.686;2023-01-08T13:54:59;17.70;61.00
64705;DHT22;51131;52.298;13.686;2023-01-08T13:57:29;17.70;61.00
64705;DHT22;51131;52.298;13.686;2023-01-08T13:59:58;17.70;61.00
64705;DHT22;51131;52.298;13.686;2023-01-08T14:02:27;17.70;61.10
64705;DHT22;51131;52.298;13.686;2023-01-08T14:04:55;17.70;60.80
64705;DHT22;51131;52.298;13.686;2023-01-08T14:07:22;17.70;61.00
64705;DHT22;51131;52.298;13.686;2023-01-08T14:09:50;17.70;61.20
64705;DHT22;51131;52.298;13.686;2023-01-08T14:12:20;17.70;61.10
64705;DHT22;51131;52.298;13.686;2023-01-08T14:14:51;17.70;60.80
64705;DHT22;51131;52.298;13.686;2023-01-08T14:17:20;17.70;61.20
64705;DHT22;51131;52.298;13.686;2023-01-08T14:19:47;17.70;61.00
64705;DHT22;51131;52.298;13.686;2023-01-08T14:22:32;17.70;61.10
64705;DHT22;51131;52.298;13.686;2023-01-08T14:25:01;17.70;61.10
64705;DHT22;51131;52.298;13.686;2023-01-08T14:27:29;17.70;61.20
64705;DHT22;51131;52.298;13.686;2023-01-08T14:29:56;17.70;61.20
64705;DHT22;51131;52.298;13.686;2023-01-08T14:32:25;17.70;61.10
64705;DHT22;51131;52.298;13.686;2023-01-08T14:34:52;17.70;61.10
64705;DHT22;51131;52.298;13.686;2023-01-08T14:37:20;17.70;61.40
64705;DHT22;51131;52.298;13.686;2023-01-08T14:39:47;17.70;61.30
64705;DHT22;51131;52.298;13.686;2023-01-08T14:42:21;17.70;61.20
64705;DHT22;51131;52.298;13.686;2023-01-08T14:45:14;17.70;61.20
64705;DHT22;51131;52.298;13.686;2023-01-08T14:47:42;17.70;61.20
64705;DHT22;51131;52.298;13.686;2023-01-08T14:50:17;17.70;61.30
64705;DHT22;51131;52.298;13.686;2023-01-08T14:52:45;17.70;61.60
64705;DHT22;51131;52.298;13.686;2023-01-08T14:55:15;18.50;62.00
64705;DHT22;51131;52.298;13.686;2023-01-08T14:57:44;17.70;61.30
64705;DHT22;51131;52.298;13.686;2023-01-08T15:00:20;17.70;61.30
64705;DHT22;51131;52.298;13.686;2023-01-08T15:02:47;17.70;61.50
64705;DHT22;51131;52.298;13.686;2023-01-08T15:05:16;17.70;61.50
64705;DHT22;51131;52.298;13.686;2023-01-08T15:07:53;17.70;61.30
64705;DHT22;51131;52.298;13.686;2023-01-08T15:10:41;17.70;61.30
64705;DHT22;51131;52.298;13.686;2023-01-08T15:13:22;17.70;61.30
64705;DHT22;51131;52.298;13.686;2023-01-08T15:15:52;17.70;61.10
64705;DHT22;51131;52.298;13.686;2023-01-08T15:18:19;17.60;61.30
64705;DHT22;51131;52.298;13.686;2023-01-08T15:20:45;17.70;61.10
64705;DHT22;51131;52.298;13.686;2023-01-08T15:23:31;17.70;61.20
64705;DHT22;51131;52.298;13.686;2023-01-08T15:26:00;17.60;61.30
64705;DHT22;51131;52.298;13.686;2023-01-08T15:28:27;17.70;61.50
64705;DHT22;51131;52.298;13.686;2023-01-08T15:30:54;17.70;61.40
64705;DHT22;51131;52.298;13.686;2023-01-08T15:33:22;17.60;61.30
64705;DHT22;51131;52.298;13.686;2023-01-08T15:35:50;17.70;61.30
64705;DHT22;51131;52.298;13.686;2023-01-08T15:38:17;17.70;61.40
64705;DHT22;51131;52.298;13.686;2023-01-08T15:40:47;17.70;61.30
64705;DHT22;51131;52.298;13.686;2023-01-08T15:43:14;17.60;61.10
64705;DHT22;51131;52.298;13.686;2023-01-08T15:45:42;18.40;62.30
64705;DHT22;51131;52.298;13.686;2023-01-08T15:48:09;17.60;61.40
64705;DHT22;51131;52.298;13.686;2023-01-08T15:50:37;17.70;61.50
64705;DHT22;51131;52.298;13.686;2023-01-08T15:53:12;17.70;61.60
64705;DHT22;51131;52.298;13.686;2023-01-08T15:55:41;17.70;61.20
64705;DHT22;51131;52.298;13.686;2023-01-08T15:58:10;18.00;61.80
64705;DHT22;51131;52.298;13.686;2023-01-08T16:00:38;17.70;61.50
64705;DHT22;51131;52.298;13.686;2023-01-08T16:03:05;17.70;61.50
64705;DHT22;51131;52.298;13.686;2023-01-08T16:05:35;17.70;61.50
64705;DHT22;51131;52.298;13.686;2023-01-08T16:08:03;17.70;61.80
64705;DHT22;51131;52.298;13.686;2023-01-08T16:10:31;17.70;61.80
64705;DHT22;51131;52.298;13.686;2023-01-08T16:13:00;17.70;61.80
64705;DHT22;51131;52.298;13.686;2023-01-08T16:15:27;17.70;61.60
64705;DHT22;51131;52.298;13.686;2023-01-08T16:17:56;17.60;61.50
64705;DHT22;51131;52.298;13.686;2023-01-08T16:20:24;17.60;61.30
64705;DHT22;51131;52.298;13.686;2023-01-08T16:22:51;18.10;62.10
64705;DHT22;51131;52.298;13.686;2023-01-08T16:25:20;18.30;62.10
64705;DHT22;51131;52.298;13.686;2023-01-08T16:27:49;17.70;61.50
64705;DHT22;51131;52.298;13.686;2023-01-08T16:30:16;17.70;61.50
64705;DHT22;51131;52.298;13.686;2023-01-08T16:32:43;17.60;61.30
64705;DHT22;51131;52.298;13.686;2023-01-08T16:35:12;17.60;61.10